sensor_id;sensor_type;location;lat;lon;timestamp;P1;durP1;ratioP1;P2;durP2;ratioP2
6902;SDS011;20232;49.408;8.702;2023-10-19T04:01:44;27.70;;;19.63;;
6902;SDS011;20232;49.408;8.702;2023-10-19T04:04:10;31.60;;;21.20;;
6902;SDS011;20232;49.408;8.702;2023-10-19T04:06:36;28.30;;;20.60;;
6902;SDS011;20232;49.408;8.702;2023-10-19T04:09:02;29.73;;;21.27;;
6902;SDS011;20232;49.408;8.702;2023-10-19T04:11:31;32.30;;;21.23;;
6902;SDS011;20232;49.408;8.702;2023-10-19T04:14:13;31.07;;;21.00;;
6902;SDS011;20232;49.408;8.702;2023-10-19T04:16:40;32.53;;;21.97;;
6902;SDS011;20232;49.408;8.702;2023-10-19T04:19:08;31.50;;;23.10;;
6902;SDS011;20232;49.408;8.702;2023-10-19T04:21:35;39.63;;;23.00;;
6902;SDS011;20232;49.408;8.702;2023-10-19T04:24:04;34.33;;;22.73;;
6902;SDS011;20232;49.408;8.702;2023-10-19T04:26:32;35.00;;;22.40;;
6902;SDS011;20232;49.408;8.702;2023-10-19T04:29:04;31.70;;;20.90;;
6902;SDS011;20232;49.408;8.702;2023-10-19T04:31:36;32.10;;;21.20;;
6902;SDS011;20232;49.408;8.702;2023-10-19T04:34:15;34.47;;;21.37;;
6902;SDS011;20232;49.408;8.702;2023-10-19T04:36:46;36.03;;;23.87;;
6902;SDS011;20232;49.408;8.702;2023-10-19T04:39:12;33.33;;;22.00;;
6902;SDS011;20232;49.408;8.702;2023-10-19T04:41:42;35.30;;;23.83;;
6902;SDS011;20232;49.408;8.702;2023-10-19T04:44:08;31.60;;;21.73;;
6902;SDS011;20232;49.408;8.702;2023-10-19T04:46:33;35.40;;;22.07;;
6902;SDS011;20232;49.408;8.702;2023-10-19T04:48:59;30.03;;;21.93;;
6902;SDS011;20232;49.408;8.702;2023-10-19T04:51:25;35.03;;;23.50;;
6902;SDS011;20232;49.408;8.702;2023-10-19T04:53:50;32.40;;;22.30;;
6902;SDS011;20232;49.408;8.702;2023-10-19T04:56:16;31.47;;;21.83;;
6902;SDS011;20232;49.408;8.702;2023-10-19T04:58:41;31.27;;;22.17;;
6902;SDS011;20232;49.408;8.702;2023-10-19T05:01:06;31.07;;;22.00;;
6902;SDS011;20232;49.408;8.702;2023-10-19T05:03:32;32.53;;;21.90;;
6902;SDS011;20232;49.408;8.702;2023-10-19T05:05:58;32.00;;;22.40;;
6902;SDS011;20232;49.408;8.702;2023-10-19T05:08:23;33.90;;;22.17;;
6902;SDS011;20232;49.408;8.702;2023-10-19T05:10:53;37.67;;;22.17;;
6902;SDS011;20232;49.408;8.702;2023-10-19T05:13:24;31.67;;;22.00;;
6902;SDS011;20232;49.408;8.702;2023-10-19T05:15:51;33.70;;;21.53;;
6902;SDS011;20232;49.408;8.702;2023-10-19T05:18:18;32.60;;;22.17;;
6902;SDS011;20232;49.408;8.702;2023-10-19T05:20:44;31.83;;;21.87;;
6902;SDS011;20232;49.408;8.702;2023-10-19T05:23:11;29.60;;;21.97;;
6902;SDS011;20232;49.408;8.702;2023-10-19T05:25:38;30.30;;;21.00;;
6902;SDS011;20232;49.408;8.702;2023-10-19T05:28:07;28.60;;;21.57;;
6902;SDS011;20232;49.408;8.702;2023-10-19T05:30:33;33.07;;;22.03;;
6902;SDS011;20232;49.408;8.702;2023-10-19T05:33:00;29.80;;;21.40;;
6902;SDS011;20232;49.408;8.702;2023-10-19T05:35:29;33.07;;;22.13;;
6902;SDS011;20232;49.408;8.702;2023-10-19T05:37:58;32.63;;;22.57;;
6902;SDS011;20232;49.408;8.702;2023-10-19T05:40:24;31.47;;;21.60;;
6902;SDS011;20232;49.408;8.702;2023-10-19T05:42:55;32.73;;;21.60;;
6902;SDS011;20232;49.408;8.702;2023-10-19T05:45:21;30.70;;;21.50;;
6902;SDS011;20232;49.408;8.702;2023-10-19T05:47:47;36.00;;;22.77;;
6902;SDS011;20232;49.408;8.702;2023-10-19T05:50:12;32.67;;;22.57;;
6902;SDS011;20232;49.408;8.702;2023-10-19T05:52:43;35.77;;;22.17;;
6902;SDS011;20232;49.408;8.702;2023-10-19T05:55:09;32.23;;;21.97;;
6902;SDS011;20232;49.408;8.702;2023-10-19T05:57:36;29.97;;;21.37;;
6902;SDS011;20232;49.408;8.702;2023-10-19T06:00:06;31.70;;;20.87;;
6902;SDS011;20232;49.408;8.702;2023-10-19T06:02:44;31.50;;;21.47;;
6902;SDS011;20232;49.408;8.702;2023-10-19T06:05:11;35.17;;;22.23;;
6902;SDS011;20232;49.408;8.702;2023-10-19T06:07:37;31.47;;;21.40;;
6902;SDS011;20232;49.408;8.702;2023-10-19T06:10:03;30.67;;;21.20;;
6902;SDS011;20232;49.408;8.702;2023-10-19T06:12:32;30.27;;;21.10;;
6902;SDS011;20232;49.408;8.702;2023-10-19T06:14:58;30.33;;;21.33;;
6902;SDS011;20232;49.408;8.702;2023-10-19T06:17:25;33.50;;;23.00;;
6902;SDS011;20232;49.408;8.702;2023-10-19T06:19:51;35.23;;;22.00;;
6902;SDS011;20232;49.408;8.702;2023-10-19T06:22:17;33.00;;;22.40;;
6902;SDS011;20232;49.408;8.702;2023-10-19T06:24:42;37.97;;;22.77;;
6902;SDS011;20232;49.408;8.702;2023-10-19T06:27:09;37.37;;;23.30;;
6902;SDS011;20232;49.408;8.702;2023-10-19T06:29:35;41.37;;;26.23;;
6902;SDS011;20232;49.408;8.702;2023-10-19T06:32:00;44.60;;;28.27;;
6902;SDS011;20232;49.408;8.702;2023-10-19T06:34:25;38.87;;;27.10;;
6902;SDS011;20232;49.408;8.702;2023-10-19T06:36:52;36.43;;;23.90;;
6902;SDS011;20232;49.408;8.702;2023-10-19T06:39:19;30.73;;;21.40;;
6902;SDS011;20232;49.408;8.702;2023-10-19T06:41:45;33.03;;;22.67;;
6902;SDS011;20232;49.408;8.702;2023-10-19T06:44:11;32.50;;;21.53;;
6902;SDS011;20232;49.408;8.702;2023-10-19T06:46:36;28.47;;;19.47;;
6902;SDS011;20232;49.408;8.702;2023-10-19T06:49:02;35.00;;;20.50;;
6902;SDS011;20232;49.408;8.702;2023-10-19T06:51:27;30.10;;;19.77;;
6902;SDS011;20232;49.408;8.702;2023-10-19T06:53:53;28.93;;;20.50;;
6902;SDS011;20232;49.408;8.702;2023-10-19T06:56:18;26.03;;;19.50;;
6902;SDS011;20232;49.408;8.702;2023-10-19T06:58:44;28.83;;;19.67;;
6902;SDS011;20232;49.408;8.702;2023-10-19T07:01:09;24.20;;;17.07;;
6902;SDS011;20232;49.408;8.702;2023-10-19T07:03:36;24.10;;;18.23;;
6902;SDS011;20232;49.408;8.702;2023-10-19T07:06:01;22.17;;;17.27;;
6902;SDS011;20232;49.408;8.702;2023-10-19T07:08:28;21.13;;;16.53;;
6902;SDS011;20232;49.408;8.702;2023-10-19T07:10:53;20.90;;;16.23;;
6902;SDS011;20232;49.408;8.702;2023-10-19T07:13:18;22.73;;;16.00;;
6902;SDS011;20232;49.408;8.702;2023-10-19T07:15:45;21.67;;;16.43;;
6902;SDS011;20232;49.408;8.702;2023-10-19T07:18:11;22.27;;;15.10;;
6902;SDS011;20232;49.408;8.702;2023-10-19T07:20:38;21.10;;;16.03;;
6902;SDS011;20232;49.408;8.702;2023-10-19T07:23:04;19.93;;;15.67;;
6902;SDS011;20232;49.408;8.702;2023-10-19T07:25:47;20.97;;;16.50;;
6902;SDS011;20232;49.408;8.702;2023-10-19T07:28:13;20.57;;;15.97;;
6902;SDS011;20232;49.408;8.702;2023-10-19T07:30:40;22.27;;;14.57;;
6902;SDS011;20232;49.408;8.702;2023-10-19T07:33:07;19.90;;;15.80;;
6902;SDS011;20232;49.408;8.702;2023-10-19T07:35:36;19.80;;;15.67;;
6902;SDS011;20232;49.408;8.702;2023-10-19T07:38:07;19.57;;;15.47;;
6902;SDS011;20232;49.408;8.702;2023-10-19T07:40:33;19.47;;;14.87;;
6902;SDS011;20232;49.408;8.702;2023-10-19T07:42:59;18.33;;;15.20;;
6902;SDS011;20232;49.408;8.702;2023-10-19T07:45:25;20.03;;;15.40;;
6902;SDS011;20232;49.408;8.702;2023-10-19T07:47:50;18.97;;;14.70;;
6902;SDS011;20232;49.408;8.702;2023-10-19T07:50:16;19.57;;;14.53;;
6902;SDS011;20232;49.408;8.702;2023-10-19T07:52:44;21.47;;;15.47;;
6902;SDS011;20232;49.408;8.702;2023-10-19T07:55:12;22.30;;;15.87;;
6902;SDS011;20232;49.408;8.702;2023-10-19T07:57:39;20.87;;;15.40;;
6902;SDS011;20232;49.408;8.702;2023-10-19T08:00:07;21.47;;;16.20;;
6902;SDS011;20232;49.408;8.702;2023-10-19T08:02:34;23.20;;;16.43;;
6902;SDS011;20232;49.408;8.702;2023-10-19T08:05:03;22.43;;;16.60;;
6902;SDS011;20232;49.408;8.702;2023-10-19T08:07:31;23.83;;;17.27;;
6902;SDS011;20232;49.408;8.702;2023-10-19T08:09:57;25.97;;;16.93;;
6902;SDS011;20232;49.408;8.702;2023-10-19T08:12:26;22.27;;;16.83;;
6902;SDS011;20232;49.408;8.702;2023-10-19T08:14:52;21.63;;;16.20;;
6902;SDS011;20232;49.408;8.702;2023-10-19T08:17:18;22.47;;;16.70;;
6902;SDS011;20232;49.408;8.702;2023-10-19T08:19:43;22.43;;;16.73;;
6902;SDS011;20232;49.408;8.702;2023-10-19T08:22:09;21.73;;;16.13;;
6902;SDS011;20232;49.408;8.702;2023-10-19T08:24:34;21.07;;;16.17;;
6902;SDS011;20232;49.408;8.702;2023-10-19T08:27:00;19.80;;;15.67;;
6902;SDS011;20232;49.408;8.702;2023-10-19T08:29:26;20.90;;;16.07;;
6902;SDS011;20232;49.408;8.702;2023-10-19T08:31:52;19.83;;;15.43;;
6902;SDS011;20232;49.408;8.702;2023-10-19T08:34:17;20.23;;;14.10;;
6902;SDS011;20232;49.408;8.702;2023-10-19T08:36:45;19.13;;;14.87;;
6902;SDS011;20232;49.408;8.702;2023-10-19T08:39:10;18.97;;;14.37;;
6902;SDS011;20232;49.408;8.702;2023-10-19T08:41:39;15.97;;;14.03;;
6902;SDS011;20232;49.408;8.702;2023-10-19T08:44:06;18.40;;;13.63;;
6902;SDS011;20232;49.408;8.702;2023-10-19T08:46:41;15.47;;;13.47;;
6902;SDS011;20232;49.408;8.702;2023-10-19T08:49:14;18.00;;;13.67;;
6902;SDS011;20232;49.408;8.702;2023-10-19T08:51:44;16.23;;;13.60;;
6902;SDS011;20232;49.408;8.702;2023-10-19T08:54:13;15.57;;;13.57;;
6902;SDS011;20232;49.408;8.702;2023-10-19T08:56:39;16.40;;;12.87;;
6902;SDS011;20232;49.408;8.702;2023-10-19T08:59:06;16.83;;;12.90;;
6902;SDS011;20232;49.408;8.702;2023-10-19T09:01:32;16.47;;;12.33;;
6902;SDS011;20232;49.408;8.702;2023-10-19T09:04:00;16.87;;;12.17;;
6902;SDS011;20232;49.408;8.702;2023-10-19T09:06:26;15.83;;;12.27;;
6902;SDS011;20232;49.408;8.702;2023-10-19T09:08:54;18.13;;;12.90;;
6902;SDS011;20232;49.408;8.702;2023-10-19T09:11:20;16.83;;;12.67;;
6902;SDS011;20232;49.408;8.702;2023-10-19T09:13:52;14.43;;;12.37;;
6902;SDS011;20232;49.408;8.702;2023-10-19T09:16:19;20.63;;;12.43;;
6902;SDS011;20232;49.408;8.702;2023-10-19T09:18:45;16.17;;;12.10;;
6902;SDS011;20232;49.408;8.702;2023-10-19T09:21:14;15.03;;;11.83;;
6902;SDS011;20232;49.408;8.702;2023-10-19T09:23:50;13.33;;;11.40;;
6902;SDS011;20232;49.408;8.702;2023-10-19T09:26:16;13.60;;;10.43;;
6902;SDS011;20232;49.408;8.702;2023-10-19T09:28:45;13.10;;;10.37;;
6902;SDS011;20232;49.408;8.702;2023-10-19T09:31:13;12.33;;;10.77;;
6902;SDS011;20232;49.408;8.702;2023-10-19T09:33:42;12.80;;;10.57;;
6902;SDS011;20232;49.408;8.702;2023-10-19T09:36:12;13.20;;;9.87;;
6902;SDS011;20232;49.408;8.702;2023-10-19T09:38:48;11.77;;;10.20;;
6902;SDS011;20232;49.408;8.702;2023-10-19T09:41:17;12.97;;;10.73;;
6902;SDS011;20232;49.408;8.702;2023-10-19T09:43:44;12.50;;;10.03;;
6902;SDS011;20232;49.408;8.702;2023-10-19T09:46:10;12.77;;;10.30;;
6902;SDS011;20232;49.408;8.702;2023-10-19T09:48:46;11.73;;;9.20;;
6902;SDS011;20232;49.408;8.702;2023-10-19T09:51:13;10.20;;;8.60;;
6902;SDS011;20232;49.408;8.702;2023-10-19T09:53:39;9.40;;;8.43;;
6902;SDS011;20232;49.408;8.702;2023-10-19T09:56:09;10.73;;;8.43;;
6902;SDS011;20232;49.408;8.702;2023-10-19T09:58:40;10.80;;;8.53;;
6902;SDS011;20232;49.408;8.702;2023-10-19T10:01:09;8.80;;;7.93;;
6902;SDS011;20232;49.408;8.702;2023-10-19T10:03:42;9.10;;;7.00;;
6902;SDS011;20232;49.408;8.702;2023-10-19T10:06:09;9.50;;;7.40;;
6902;SDS011;20232;49.408;8.702;2023-10-19T10:08:40;7.03;;;6.33;;
6902;SDS011;20232;49.408;8.702;2023-10-19T10:11:13;6.47;;;5.83;;
6902;SDS011;20232;49.408;8.702;2023-10-19T10:13:43;7.30;;;6.20;;
6902;SDS011;20232;49.408;8.702;2023-10-19T10:16:12;8.33;;;5.90;;
6902;SDS011;20232;49.408;8.702;2023-10-19T10:18:38;7.00;;;6.30;;
6902;SDS011;20232;49.408;8.702;2023-10-19T10:23:39;5.93;;;5.33;;
6902;SDS011;20232;49.408;8.702;2023-10-19T10:26:07;7.00;;;5.13;;
6902;SDS011;20232;49.408;8.702;2023-10-19T10:28:35;9.40;;;5.27;;
6902;SDS011;20232;49.408;8.702;2023-10-19T10:31:11;6.00;;;4.93;;
6902;SDS011;20232;49.408;8.702;2023-10-19T10:33:47;6.40;;;4.70;;
6902;SDS011;20232;49.408;8.702;2023-10-19T10:36:17;7.27;;;4.97;;
6902;SDS011;20232;49.408;8.702;2023-10-19T10:38:47;7.17;;;4.97;;
6902;SDS011;20232;49.408;8.702;2023-10-19T10:41:23;6.27;;;4.60;;
6902;SDS011;20232;49.408;8.702;2023-10-19T10:43:56;6.10;;;4.90;;
6902;SDS011;20232;49.408;8.702;2023-10-19T10:46:22;6.60;;;4.47;;
6902;SDS011;20232;49.408;8.702;2023-10-19T10:48:49;7.83;;;4.57;;
6902;SDS011;20232;49.408;8.702;2023-10-19T10:51:36;5.87;;;4.63;;
6902;SDS011;20232;49.408;8.702;2023-10-19T10:54:00;6.10;;;4.33;;
6902;SDS011;20232;49.408;8.702;2023-10-19T10:56:26;6.37;;;4.23;;
6902;SDS011;20232;49.408;8.702;2023-10-19T10:58:51;8.17;;;4.23;;
6902;SDS011;20232;49.408;8.702;2023-10-19T11:01:32;4.77;;;4.37;;
6902;SDS011;20232;49.408;8.702;2023-10-19T11:04:08;7.87;;;4.40;;
6902;SDS011;20232;49.408;8.702;2023-10-19T11:09:16;4.47;;;3.80;;
6902;SDS011;20232;49.408;8.702;2023-10-19T11:11:45;4.57;;;3.37;;
6902;SDS011;20232;49.408;8.702;2023-10-19T11:14:11;3.67;;;3.13;;
6902;SDS011;20232;49.408;8.702;2023-10-19T11:16:36;4.60;;;3.57;;
6902;SDS011;20232;49.408;8.702;2023-10-19T11:19:04;5.57;;;3.90;;
6902;SDS011;20232;49.408;8.702;2023-10-19T11:21:29;5.53;;;4.03;;
6902;SDS011;20232;49.408;8.702;2023-10-19T11:23:55;5.67;;;3.67;;
6902;SDS011;20232;49.408;8.702;2023-10-19T11:26:22;4.57;;;4.13;;
6902;SDS011;20232;49.408;8.702;2023-10-19T11:28:57;5.43;;;4.63;;
6902;SDS011;20232;49.408;8.702;2023-10-19T11:31:23;7.33;;;4.50;;
6902;SDS011;20232;49.408;8.702;2023-10-19T11:33:52;5.60;;;4.30;;
6902;SDS011;20232;49.408;8.702;2023-10-19T11:36:18;4.40;;;3.93;;
6902;SDS011;20232;49.408;8.702;2023-10-19T11:38:46;6.17;;;4.10;;
6902;SDS011;20232;49.408;8.702;2023-10-19T11:41:12;5.53;;;4.50;;
6902;SDS011;20232;49.408;8.702;2023-10-19T11:43:44;5.77;;;4.00;;
6902;SDS011;20232;49.408;8.702;2023-10-19T11:46:11;4.30;;;3.90;;
6902;SDS011;20232;49.408;8.702;2023-10-19T11:48:37;5.57;;;3.97;;
6902;SDS011;20232;49.408;8.702;2023-10-19T11:51:04;6.97;;;4.70;;
6902;SDS011;20232;49.408;8.702;2023-10-19T11:53:31;5.17;;;4.10;;
6902;SDS011;20232;49.408;8.702;2023-10-19T11:56:07;4.47;;;4.07;;
6902;SDS011;20232;49.408;8.702;2023-10-19T11:58:34;5.83;;;4.33;;
6902;SDS011;20232;49.408;8.702;2023-10-19T12:01:01;5.93;;;4.60;;
6902;SDS011;20232;49.408;8.702;2023-10-19T12:03:39;5.23;;;4.33;;
6902;SDS011;20232;49.408;8.702;2023-10-19T12:06:09;6.67;;;5.07;;
6902;SDS011;20232;49.408;8.702;2023-10-19T12:08:35;7.73;;;4.50;;
6902;SDS011;20232;49.408;8.702;2023-10-19T12:11:02;7.63;;;5.30;;
6902;SDS011;20232;49.408;8.702;2023-10-19T12:13:29;7.27;;;4.93;;
6902;SDS011;20232;49.408;8.702;2023-10-19T12:15:56;7.07;;;5.17;;
6902;SDS011;20232;49.408;8.702;2023-10-19T12:18:22;10.00;;;6.23;;
6902;SDS011;20232;49.408;8.702;2023-10-19T12:20:48;9.33;;;5.53;;
6902;SDS011;20232;49.408;8.702;2023-10-19T12:23:14;12.67;;;6.30;;
6902;SDS011;20232;49.408;8.702;2023-10-19T12:25:39;9.17;;;7.00;;
6902;SDS011;20232;49.408;8.702;2023-10-19T12:28:07;7.97;;;7.17;;
6902;SDS011;20232;49.408;8.702;2023-10-19T12:30:33;9.10;;;7.07;;
6902;SDS011;20232;49.408;8.702;2023-10-19T12:33:05;8.50;;;7.13;;
6902;SDS011;20232;49.408;8.702;2023-10-19T12:35:36;9.50;;;7.50;;
6902;SDS011;20232;49.408;8.702;2023-10-19T12:38:17;14.00;;;8.53;;
6902;SDS011;20232;49.408;8.702;2023-10-19T12:40:46;10.23;;;8.73;;
6902;SDS011;20232;49.408;8.702;2023-10-19T12:43:13;13.97;;;9.17;;
6902;SDS011;20232;49.408;8.702;2023-10-19T12:45:40;9.67;;;7.47;;
6902;SDS011;20232;49.408;8.702;2023-10-19T12:48:06;10.80;;;8.10;;
6902;SDS011;20232;49.408;8.702;2023-10-19T12:50:32;12.10;;;8.60;;
6902;SDS011;20232;49.408;8.702;2023-10-19T12:52:59;10.60;;;8.47;;
6902;SDS011;20232;49.408;8.702;2023-10-19T12:55:25;10.80;;;8.43;;
6902;SDS011;20232;49.408;8.702;2023-10-19T12:57:55;11.30;;;9.17;;
6902;SDS011;20232;49.408;8.702;2023-10-19T13:00:22;11.67;;;8.77;;
6902;SDS011;20232;49.408;8.702;2023-10-19T13:02:54;9.20;;;8.20;;
6902;SDS011;20232;49.408;8.702;2023-10-19T13:05:31;12.43;;;8.17;;
6902;SDS011;20232;49.408;8.702;2023-10-19T13:08:01;9.93;;;7.87;;
6902;SDS011;20232;49.408;8.702;2023-10-19T13:10:30;9.97;;;7.73;;
6902;SDS011;20232;49.408;8.702;2023-10-19T13:13:02;9.77;;;8.50;;
6902;SDS011;20232;49.408;8.702;2023-10-19T13:15:29;9.00;;;8.13;;
6902;SDS011;20232;49.408;8.702;2023-10-19T13:18:01;11.27;;;8.50;;
6902;SDS011;20232;49.408;8.702;2023-10-19T13:20:28;13.93;;;8.87;;
6902;SDS011;20232;49.408;8.702;2023-10-19T13:22:58;12.53;;;9.33;;
6902;SDS011;20232;49.408;8.702;2023-10-19T13:25:24;11.33;;;9.63;;
6902;SDS011;20232;49.408;8.702;2023-10-19T13:28:09;12.07;;;10.00;;
6902;SDS011;20232;49.408;8.702;2023-10-19T13:30:38;12.80;;;9.67;;
6902;SDS011;20232;49.408;8.702;2023-10-19T13:33:05;11.70;;;9.27;;
6902;SDS011;20232;49.408;8.702;2023-10-19T13:35:32;11.77;;;10.13;;
6902;SDS011;20232;49.408;8.702;2023-10-19T13:37:58;13.73;;;9.67;;
6902;SDS011;20232;49.408;8.702;2023-10-19T13:40:25;13.27;;;10.67;;
6902;SDS011;20232;49.408;8.702;2023-10-19T13:42:55;15.83;;;10.97;;
6902;SDS011;20232;49.408;8.702;2023-10-19T13:45:21;18.10;;;10.87;;
6902;SDS011;20232;49.408;8.702;2023-10-19T13:47:46;12.53;;;10.80;;
6902;SDS011;20232;49.408;8.702;2023-10-19T13:50:12;11.37;;;10.03;;
6902;SDS011;20232;49.408;8.702;2023-10-19T13:52:38;12.80;;;9.90;;
6902;SDS011;20232;49.408;8.702;2023-10-19T13:55:05;12.80;;;9.93;;
6902;SDS011;20232;49.408;8.702;2023-10-19T13:57:32;11.83;;;10.30;;
6902;SDS011;20232;49.408;8.702;2023-10-19T13:59:59;10.93;;;9.07;;
6902;SDS011;20232;49.408;8.702;2023-10-19T14:02:24;12.37;;;9.43;;
6902;SDS011;20232;49.408;8.702;2023-10-19T14:04:50;11.73;;;9.10;;
6902;SDS011;20232;49.408;8.702;2023-10-19T14:07:17;12.10;;;9.80;;
6902;SDS011;20232;49.408;8.702;2023-10-19T14:09:42;9.70;;;8.70;;
6902;SDS011;20232;49.408;8.702;2023-10-19T14:12:07;10.43;;;9.17;;
6902;SDS011;20232;49.408;8.702;2023-10-19T14:14:34;12.77;;;9.30;;
6902;SDS011;20232;49.408;8.702;2023-10-19T14:17:00;13.27;;;9.00;;
6902;SDS011;20232;49.408;8.702;2023-10-19T14:19:26;10.37;;;8.60;;
6902;SDS011;20232;49.408;8.702;2023-10-19T14:21:51;10.10;;;8.23;;
6902;SDS011;20232;49.408;8.702;2023-10-19T14:24:17;9.67;;;8.20;;
6902;SDS011;20232;49.408;8.702;2023-10-19T14:26:45;12.00;;;8.50;;
6902;SDS011;20232;49.408;8.702;2023-10-19T14:29:11;10.57;;;8.97;;
6902;SDS011;20232;49.408;8.702;2023-10-19T14:31:38;10.73;;;8.17;;
6902;SDS011;20232;49.408;8.702;2023-10-19T14:34:04;10.07;;;9.07;;
6902;SDS011;20232;49.408;8.702;2023-10-19T14:36:29;11.73;;;9.73;;
6902;SDS011;20232;49.408;8.702;2023-10-19T14:38:55;13.20;;;9.57;;
6902;SDS011;20232;49.408;8.702;2023-10-19T14:41:20;10.10;;;9.10;;
6902;SDS011;20232;49.408;8.702;2023-10-19T14:43:46;14.03;;;9.73;;
6902;SDS011;20232;49.408;8.702;2023-10-19T14:46:11;10.30;;;9.20;;
6902;SDS011;20232;49.408;8.702;2023-10-19T14:48:38;12.93;;;9.17;;
6902;SDS011;20232;49.408;8.702;2023-10-19T14:51:03;12.33;;;9.60;;
6902;SDS011;20232;49.408;8.702;2023-10-19T14:53:30;13.43;;;8.80;;
6902;SDS011;20232;49.408;8.702;2023-10-19T14:55:56;13.57;;;9.83;;
6902;SDS011;20232;49.408;8.702;2023-10-19T14:58:26;12.20;;;10.13;;
6902;SDS011;20232;49.408;8.702;2023-10-19T15:00:51;11.27;;;9.67;;
6902;SDS011;20232;49.408;8.702;2023-10-19T15:03:20;10.30;;;8.77;;
6902;SDS011;20232;49.408;8.702;2023-10-19T15:05:49;10.43;;;8.40;;
6902;SDS011;20232;49.408;8.702;2023-10-19T15:08:15;9.83;;;8.83;;
6902;SDS011;20232;49.408;8.702;2023-10-19T15:10:41;10.53;;;9.40;;
6902;SDS011;20232;49.408;8.702;2023-10-19T15:13:09;11.60;;;9.47;;
6902;SDS011;20232;49.408;8.702;2023-10-19T15:15:35;11.27;;;9.23;;
6902;SDS011;20232;49.408;8.702;2023-10-19T15:18:01;10.70;;;9.57;;
6902;SDS011;20232;49.408;8.702;2023-10-19T15:20:27;10.43;;;9.40;;
6902;SDS011;20232;49.408;8.702;2023-10-19T15:22:54;10.43;;;9.10;;
6902;SDS011;20232;49.408;8.702;2023-10-19T15:25:19;10.93;;;8.53;;
6902;SDS011;20232;49.408;8.702;2023-10-19T15:27:48;8.97;;;7.77;;
6902;SDS011;20232;49.408;8.702;2023-10-19T15:30:14;9.03;;;8.13;;
6902;SDS011;20232;49.408;8.702;2023-10-19T15:32:40;10.77;;;7.87;;
6902;SDS011;20232;49.408;8.702;2023-10-19T15:35:10;10.47;;;8.37;;
6902;SDS011;20232;49.408;8.702;2023-10-19T15:37:40;10.13;;;7.40;;
6902;SDS011;20232;49.408;8.702;2023-10-19T15:40:06;9.20;;;6.87;;
6902;SDS011;20232;49.408;8.702;2023-10-19T15:42:32;10.83;;;7.03;;
6902;SDS011;20232;49.408;8.702;2023-10-19T15:45:01;8.87;;;7.07;;
6902;SDS011;20232;49.408;8.702;2023-10-19T15:47:26;8.23;;;6.90;;
6902;SDS011;20232;49.408;8.702;2023-10-19T15:49:53;11.00;;;6.60;;
6902;SDS011;20232;49.408;8.702;2023-10-19T15:52:25;6.90;;;6.20;;
6902;SDS011;20232;49.408;8.702;2023-10-19T15:54:53;7.50;;;6.50;;
6902;SDS011;20232;49.408;8.702;2023-10-19T15:57:19;7.07;;;6.10;;
6902;SDS011;20232;49.408;8.702;2023-10-19T15:59:46;9.30;;;6.43;;
6902;SDS011;20232;49.408;8.702;2023-10-19T16:02:12;7.77;;;6.77;;
6902;SDS011;20232;49.408;8.702;2023-10-19T16:04:39;8.60;;;6.67;;
6902;SDS011;20232;49.408;8.702;2023-10-19T16:07:07;9.23;;;6.73;;
6902;SDS011;20232;49.408;8.702;2023-10-19T16:09:33;8.70;;;6.70;;
6902;SDS011;20232;49.408;8.702;2023-10-19T16:11:59;10.27;;;5.87;;
6902;SDS011;20232;49.408;8.702;2023-10-19T16:14:25;8.73;;;6.70;;
6902;SDS011;20232;49.408;8.702;2023-10-19T16:16:51;10.03;;;6.90;;
6902;SDS011;20232;49.408;8.702;2023-10-19T16:19:17;8.97;;;6.80;;
6902;SDS011;20232;49.408;8.702;2023-10-19T16:21:42;7.63;;;6.83;;
6902;SDS011;20232;49.408;8.702;2023-10-19T16:24:08;7.97;;;6.63;;
6902;SDS011;20232;49.408;8.702;2023-10-19T16:26:35;12.23;;;6.57;;
6902;SDS011;20232;49.408;8.702;2023-10-19T16:29:01;9.20;;;6.57;;
6902;SDS011;20232;49.408;8.702;2023-10-19T16:31:30;8.97;;;6.63;;
6902;SDS011;20232;49.408;8.702;2023-10-19T16:33:59;8.87;;;7.33;;
6902;SDS011;20232;49.408;8.702;2023-10-19T16:36:24;9.40;;;7.30;;
6902;SDS011;20232;49.408;8.702;2023-10-19T16:38:53;7.73;;;6.70;;
6902;SDS011;20232;49.408;8.702;2023-10-19T16:41:18;10.33;;;7.20;;
6902;SDS011;20232;49.408;8.702;2023-10-19T16:43:45;8.00;;;7.17;;
6902;SDS011;20232;49.408;8.702;2023-10-19T16:46:11;8.33;;;6.87;;
6902;SDS011;20232;49.408;8.702;2023-10-19T16:48:37;8.03;;;6.27;;
6902;SDS011;20232;49.408;8.702;2023-10-19T16:51:03;6.73;;;5.83;;
6902;SDS011;20232;49.408;8.702;2023-10-19T16:53:29;7.90;;;5.90;;
6902;SDS011;20232;49.408;8.702;2023-10-19T16:56:01;6.37;;;5.77;;
6902;SDS011;20232;49.408;8.702;2023-10-19T16:58:27;6.93;;;5.77;;
6902;SDS011;20232;49.408;8.702;2023-10-19T17:00:53;7.33;;;5.60;;
6902;SDS011;20232;49.408;8.702;2023-10-19T17:03:18;6.00;;;4.43;;
6902;SDS011;20232;49.408;8.702;2023-10-19T17:05:44;5.83;;;5.20;;
6902;SDS011;20232;49.408;8.702;2023-10-19T17:08:09;4.77;;;4.37;;
6902;SDS011;20232;49.408;8.702;2023-10-19T17:10:35;4.17;;;3.77;;
6902;SDS011;20232;49.408;8.702;2023-10-19T17:13:02;4.17;;;3.60;;
6902;SDS011;20232;49.408;8.702;2023-10-19T17:15:27;3.60;;;3.30;;
6902;SDS011;20232;49.408;8.702;2023-10-19T17:17:54;6.23;;;5.63;;
6902;SDS011;20232;49.408;8.702;2023-10-19T17:20:19;4.13;;;3.80;;
6902;SDS011;20232;49.408;8.702;2023-10-19T17:22:45;7.13;;;5.43;;
6902;SDS011;20232;49.408;8.702;2023-10-19T17:25:10;3.93;;;3.63;;
6902;SDS011;20232;49.408;8.702;2023-10-19T17:27:35;4.77;;;4.37;;
6902;SDS011;20232;49.408;8.702;2023-10-19T17:30:01;4.57;;;4.03;;
6902;SDS011;20232;49.408;8.702;2023-10-19T17:32:27;4.17;;;3.77;;
6902;SDS011;20232;49.408;8.702;2023-10-19T17:34:53;6.03;;;4.20;;
6902;SDS011;20232;49.408;8.702;2023-10-19T17:37:19;3.97;;;3.57;;
6902;SDS011;20232;49.408;8.702;2023-10-19T17:39:45;3.70;;;3.40;;
6902;SDS011;20232;49.408;8.702;2023-10-19T17:42:10;4.20;;;3.67;;
6902;SDS011;20232;49.408;8.702;2023-10-19T17:44:36;3.73;;;3.37;;
6902;SDS011;20232;49.408;8.702;2023-10-19T17:47:01;4.50;;;3.37;;
6902;SDS011;20232;49.408;8.702;2023-10-19T17:49:27;4.10;;;3.70;;
6902;SDS011;20232;49.408;8.702;2023-10-19T17:51:54;4.07;;;3.67;;
6902;SDS011;20232;49.408;8.702;2023-10-19T17:54:20;3.40;;;3.13;;
6902;SDS011;20232;49.408;8.702;2023-10-19T17:56:45;4.13;;;3.43;;
6902;SDS011;20232;49.408;8.702;2023-10-19T17:59:12;3.60;;;3.30;;
6902;SDS011;20232;49.408;8.702;2023-10-19T18:01:37;3.77;;;3.40;;
6902;SDS011;20232;49.408;8.702;2023-10-19T18:04:04;5.70;;;3.97;;
6902;SDS011;20232;49.408;8.702;2023-10-19T18:06:29;8.87;;;5.13;;
6902;SDS011;20232;49.408;8.702;2023-10-19T18:08:55;7.90;;;5.17;;
6902;SDS011;20232;49.408;8.702;2023-10-19T18:11:24;9.13;;;6.30;;
6902;SDS011;20232;49.408;8.702;2023-10-19T18:13:50;20.67;;;10.00;;
6902;SDS011;20232;49.408;8.702;2023-10-19T18:16:15;12.57;;;7.17;;
6902;SDS011;20232;49.408;8.702;2023-10-19T18:18:41;12.60;;;7.10;;
6902;SDS011;20232;49.408;8.702;2023-10-19T18:21:13;10.80;;;6.77;;
6902;SDS011;20232;49.408;8.702;2023-10-19T18:23:42;15.17;;;7.30;;
6902;SDS011;20232;49.408;8.702;2023-10-19T18:26:10;9.17;;;6.03;;
6902;SDS011;20232;49.408;8.702;2023-10-19T18:28:35;7.00;;;5.53;;
6902;SDS011;20232;49.408;8.702;2023-10-19T18:31:02;6.00;;;5.20;;
6902;SDS011;20232;49.408;8.702;2023-10-19T18:33:28;5.33;;;4.50;;
6902;SDS011;20232;49.408;8.702;2023-10-19T18:35:58;6.63;;;5.50;;
6902;SDS011;20232;49.408;8.702;2023-10-19T18:38:24;7.53;;;5.80;;
6902;SDS011;20232;49.408;8.702;2023-10-19T18:40:54;6.27;;;5.30;;
6902;SDS011;20232;49.408;8.702;2023-10-19T18:43:22;5.80;;;4.50;;
6902;SDS011;20232;49.408;8.702;2023-10-19T18:45:47;6.17;;;4.37;;
6902;SDS011;20232;49.408;8.702;2023-10-19T18:48:12;5.43;;;4.80;;
6902;SDS011;20232;49.408;8.702;2023-10-19T18:50:38;4.70;;;4.20;;
6902;SDS011;20232;49.408;8.702;2023-10-19T18:53:03;4.17;;;3.77;;
6902;SDS011;20232;49.408;8.702;2023-10-19T18:55:29;3.83;;;3.47;;